Time;durP1;ratioP1;P1;durP2;ratioP2;P2;SDS_P1;SDS_P2;PMS_P1;PMS_P2;Temp;Humidity;BMP_temperature;BMP_pressure;BME280_temperature;BME280_humidity;BME280_pressure;Samples;Min_cycle;Max_cycle;Signal;HPM_P1;HPM_P2
2023/12/09 00:05:18;;;;;;;27.55;8.13;;;4.00;99.90;;;;;;21099808;28;20058;-77
2023/12/09 00:15:19;;;;;;;28.75;10.95;;;4.00;99.90;;;;;;21101876;28;20036;-77
2023/12/09 00:25:20;;;;;;;28.88;9.40;;;3.90;99.90;;;;;;21104742;28;20638;-78
2023/12/09 00:35:21;;;;;;;27.95;10.18;;;3.90;99.90;;;;;;21074173;28;20031;-77
2023/12/09 00:45:24;;;;;;;83.70;21.73;;;4.00;99.90;;;;;;21092105;28;20097;-77
2023/12/09 00:55:25;;;;;;;20.85;8.60;;;4.00;99.90;;;;;;21100709;28;20047;-77
2023/12/09 01:05:27;;;;;;;22.63;6.10;;;4.00;99.90;;;;;;21098404;28;20498;-78
2023/12/09 01:15:28;;;;;;;21.33;7.40;;;3.90;99.90;;;;;;21099549;28;20024;-78
2023/12/09 01:25:29;;;;;;;25.17;8.60;;;4.00;99.90;;;;;;21079053;28;20027;-78
2023/12/09 01:35:30;;;;;;;26.42;6.97;;;4.10;99.90;;;;;;21099248;28;20035;-78
2023/12/09 01:45:31;;;;;;;23.80;7.18;;;4.10;99.90;;;;;;21103134;28;20072;-78
2023/12/09 01:55:33;;;;;;;27.05;7.22;;;4.00;99.90;;;;;;21095494;28;20024;-78
2023/12/09 02:05:34;;;;;;;28.25;8.02;;;4.00;99.90;;;;;;21091390;28;20043;-77
2023/12/09 02:15:41;;;;;;;26.77;8.02;;;3.50;99.90;;;;;;21092559;28;20028;-77
2023/12/09 02:25:42;;;;;;;26.35;7.43;;;3.70;99.90;;;;;;21094456;28;20024;-77
2023/12/09 02:35:45;;;;;;;22.63;7.07;;;3.60;99.90;;;;;;21056261;28;20741;-77
2023/12/09 02:45:46;;;;;;;35.35;7.22;;;3.10;99.90;;;;;;21107381;28;20088;-77
2023/12/09 02:55:47;;;;;;;24.35;7.13;;;3.20;99.90;;;;;;21128172;28;20062;-77
2023/12/09 03:05:48;;;;;;;40.92;9.98;;;3.50;99.90;;;;;;21135743;28;20024;-77
2023/12/09 03:15:49;;;;;;;28.38;8.15;;;3.50;99.90;;;;;;21129381;28;20111;-76
2023/12/09 03:25:50;;;;;;;24.30;7.15;;;3.50;99.90;;;;;;21138798;28;20425;-77
2023/12/09 03:35:51;;;;;;;24.30;7.88;;;3.30;99.90;;;;;;21130964;28;20464;-77
2023/12/09 03:45:52;;;;;;;28.48;8.40;;;3.40;99.90;;;;;;21139150;28;20644;-78
2023/12/09 03:55:53;;;;;;;30.05;8.52;;;3.40;99.90;;;;;;21141251;28;20080;-78
2023/12/09 04:05:54;;;;;;;33.28;7.97;;;3.50;99.90;;;;;;21115523;28;20035;-77
2023/12/09 04:15:55;;;;;;;44.17;8.57;;;3.60;99.90;;;;;;21116127;28;20046;-78
2023/12/09 04:25:56;;;;;;;15.18;6.20;;;3.50;99.90;;;;;;21124636;28;20084;-78
2023/12/09 04:35:57;;;;;;;59.40;8.07;;;3.40;99.90;;;;;;21128376;28;20032;-78
2023/12/09 04:45:58;;;;;;;176.32;14.25;;;3.50;99.90;;;;;;21130881;28;20081;-77
2023/12/09 04:55:59;;;;;;;19.80;7.70;;;3.40;99.90;;;;;;21118867;28;20032;-77
2023/12/09 05:06:00;;;;;;;23.58;7.40;;;3.20;99.90;;;;;;21112308;28;20058;-77
2023/12/09 05:16:02;;;;;;;23.40;7.70;;;3.10;99.90;;;;;;21131359;28;20474;-79
2023/12/09 05:26:04;;;;;;;20.13;7.45;;;3.20;99.90;;;;;;21137114;28;20035;-78
2023/12/09 05:36:05;;;;;;;29.85;10.88;;;3.30;99.90;;;;;;21124803;28;20530;-79
2023/12/09 05:46:06;;;;;;;21.55;7.68;;;3.30;99.90;;;;;;21113644;28;20032;-79
2023/12/09 05:56:13;;;;;;;54.80;13.55;;;3.30;99.90;;;;;;21121339;28;20073;-79
2023/12/09 06:06:14;;;;;;;73.05;15.70;;;3.50;99.90;;;;;;21126140;28;20029;-77
2023/12/09 06:16:19;;;;;;;40.38;11.23;;;3.60;99.90;;;;;;21126659;28;20021;-78
2023/12/09 06:26:20;;;;;;;45.10;12.02;;;3.60;99.90;;;;;;21134931;28;20042;-78
2023/12/09 06:36:21;;;;;;;71.47;20.73;;;3.60;99.90;;;;;;21112996;28;20434;-78
2023/12/09 06:46:22;;;;;;;38.90;10.90;;;3.70;99.90;;;;;;21129134;28;20024;-79
2023/12/09 06:56:23;;;;;;;65.97;16.58;;;3.70;99.90;;;;;;21144839;28;20380;-78
2023/12/09 07:06:26;;;;;;;62.13;16.08;;;3.90;99.90;;;;;;21115357;28;20054;-77
2023/12/09 07:16:27;;;;;;;39.45;10.20;;;4.00;99.90;;;;;;21128392;28;20081;-81
2023/12/09 07:26:28;;;;;;;59.40;18.10;;;4.00;99.90;;;;;;21169549;28;20036;-80
2023/12/09 07:36:29;;;;;;;52.35;14.82;;;3.90;99.90;;;;;;21157047;28;20489;-81
2023/12/09 07:46:30;;;;;;;50.83;13.32;;;3.90;99.90;;;;;;21171343;28;20024;-80
2023/12/09 07:56:31;;;;;;;62.63;20.30;;;4.20;99.90;;;;;;21160672;28;20057;-81
2023/12/09 08:06:32;;;;;;;48.42;16.77;;;4.30;99.90;;;;;;21132620;28;20032;-78
2023/12/09 08:16:33;;;;;;;;;;;4.40;99.90;;;;;;21118913;28;20050;-81
2023/12/09 08:26:35;;;;;;;46.25;15.38;;;4.90;99.90;;;;;;21128999;28;19911;-81
2023/12/09 08:36:35;;;;;;;41.58;13.15;;;5.00;99.90;;;;;;21185187;28;20039;-79
2023/12/09 08:46:36;;;;;;;;;;;4.90;99.90;;;;;;21185697;28;20119;-79
2023/12/09 08:56:37;;;;;;;34.58;13.02;;;5.10;99.90;;;;;;21155461;28;20006;-78
2023/12/09 09:06:38;;;;;;;;;;;5.20;99.90;;;;;;21151168;28;20046;-79
2023/12/09 09:16:39;;;;;;;43.80;13.38;;;5.30;99.90;;;;;;21167135;28;19908;-78
2023/12/09 09:26:40;;;;;;;;;;;5.10;99.90;;;;;;21164910;28;20032;-80
2023/12/09 09:36:41;;;;;;;45.20;13.48;;;5.40;99.90;;;;;;21175552;28;20303;-80
2023/12/09 09:46:42;;;;;;;38.72;11.52;;;5.30;99.90;;;;;;21161604;28;20035;-79
2023/12/09 09:56:44;;;;;;;36.35;13.55;;;5.20;99.90;;;;;;21150153;28;20040;-79
2023/12/09 10:06:47;;;;;;;41.30;13.55;;;5.20;99.90;;;;;;21143669;28;20040;-79
2023/12/09 10:16:49;;;;;;;40.90;12.80;;;5.10;99.90;;;;;;21157906;28;20043;-79
2023/12/09 10:26:50;;;;;;;41.53;13.02;;;5.10;99.90;;;;;;21160288;28;20073;-79
2023/12/09 10:36:51;;;;;;;32.30;11.50;;;5.00;99.90;;;;;;21166403;28;20057;-79
2023/12/09 10:46:52;;;;;;;;;;;5.20;99.90;;;;;;21120898;28;20024;-77
2023/12/09 10:56:53;;;;;;;29.57;11.33;;;5.50;99.90;;;;;;21169548;28;19929;-77
2023/12/09 11:06:55;;;;;;;;;;;6.00;99.90;;;;;;21154021;28;20293;-78
2023/12/09 11:17:01;;;;;;;28.85;11.82;;;6.30;99.90;;;;;;21154454;28;19907;-79
2023/12/09 11:27:03;;;;;;;27.88;12.90;;;7.10;99.90;;;;;;21151309;28;20125;-79
2023/12/09 11:37:08;;;;;;;17.60;9.48;;;8.20;99.90;;;;;;21140544;28;20047;-78
2023/12/09 11:47:09;;;;;;;22.20;9.55;;;8.30;99.90;;;;;;21148093;28;20426;-77
2023/12/09 11:57:10;;;;;;;18.27;8.73;;;8.10;99.90;;;;;;21119693;28;20054;-77
2023/12/09 12:07:11;;;;;;;17.67;7.80;;;8.90;99.90;;;;;;21141257;28;20032;-76
2023/12/09 12:17:18;;;;;;;18.73;9.47;;;8.80;99.90;;;;;;21136838;28;20050;-76
2023/12/09 12:27:19;;;;;;;15.43;8.23;;;8.40;99.90;;;;;;21146446;28;20327;-77
2023/12/09 12:37:20;;;;;;;16.97;8.83;;;8.00;99.90;;;;;;21105394;28;20092;-77
2023/12/09 12:47:21;;;;;;;16.13;8.00;;;7.80;99.90;;;;;;21119879;28;20057;-77
2023/12/09 12:57:22;;;;;;;17.35;7.93;;;7.80;99.90;;;;;;21108647;28;20269;-77
2023/12/09 13:07:23;;;;;;;13.57;6.70;;;7.60;99.90;;;;;;21120790;28;20085;-76
2023/12/09 13:17:23;;;;;;;17.00;8.07;;;7.30;99.90;;;;;;21130325;28;20310;-77
2023/12/09 13:27:24;;;;;;;18.20;8.75;;;7.30;99.90;;;;;;21114990;28;20114;-77
2023/12/09 13:37:25;;;;;;;15.13;7.70;;;7.10;99.90;;;;;;21118083;28;20062;-77
2023/12/09 13:47:26;;;;;;;10.32;5.05;;;7.00;99.90;;;;;;21135282;28;20027;-76
2023/12/09 13:57:28;;;;;;;;;;;6.90;99.90;;;;;;21118574;28;20096;-76
2023/12/09 14:07:29;;;;;;;4.70;3.08;;;6.90;99.90;;;;;;21119160;28;19976;-77
2023/12/09 14:17:31;;;;;;;4.43;2.25;;;6.90;99.90;;;;;;21151110;28;20032;-79
2023/12/09 14:27:34;;;;;;;4.25;1.40;;;7.00;99.90;;;;;;21150671;28;20028;-78
2023/12/09 14:37:35;;;;;;;46.08;22.05;;;6.90;99.90;;;;;;21168773;28;20514;-78
2023/12/09 14:47:36;;;;;;;22.75;11.55;;;6.80;99.90;;;;;;21155022;28;20043;-78
2023/12/09 14:57:36;;;;;;;;;;;6.60;99.90;;;;;;21165178;28;20066;-79
2023/12/09 15:07:38;;;;;;;14.45;8.45;;;6.40;99.90;;;;;;21188814;27;19986;-78
2023/12/09 15:17:41;;;;;;;4.13;2.45;;;6.30;99.90;;;;;;21153744;28;20031;-77
2023/12/09 15:27:45;;;;;;;1.60;1.10;;;6.20;99.90;;;;;;21175600;27;20095;-77
2023/12/09 15:37:46;;;;;;;5.30;1.00;;;6.60;99.90;;;;;;21149727;28;20023;-76
2023/12/09 15:47:47;;;;;;;1.63;1.17;;;6.60;99.90;;;;;;21113285;28;20101;-76
2023/12/09 15:57:49;;;;;;;3.83;1.60;;;6.60;99.90;;;;;;21124603;28;20050;-77
2023/12/09 16:07:49;;;;;;;;;;;6.50;99.90;;;;;;21128141;28;20027;-74
2023/12/09 16:17:50;;;;;;;3.38;1.75;;;6.50;99.90;;;;;;21124497;28;19907;-77
2023/12/09 16:27:52;;;;;;;38.63;17.92;;;6.70;99.90;;;;;;21120470;28;20475;-77
2023/12/09 16:37:54;;;;;;;9.30;5.10;;;6.60;99.90;;;;;;21115471;28;20036;-77
2023/12/09 16:47:55;;;;;;;5.57;3.10;;;6.50;99.90;;;;;;21114299;28;20028;-77
2023/12/09 16:57:56;;;;;;;5.70;3.03;;;6.40;99.90;;;;;;21124920;28;20108;-78
2023/12/09 17:07:57;;;;;;;;;;;5.90;99.90;;;;;;21126564;28;20110;-78
2023/12/09 17:17:58;;;;;;;12.73;5.22;;;5.70;99.90;;;;;;21124269;28;19907;-78
2023/12/09 17:27:59;;;;;;;5.88;3.35;;;5.70;99.90;;;;;;21124061;28;20039;-78
2023/12/09 17:38:00;;;;;;;;;;;5.60;99.90;;;;;;21140912;28;20039;-78
2023/12/09 17:48:01;;;;;;;4.43;3.03;;;5.60;99.90;;;;;;21143467;28;20017;-77
2023/12/09 17:58:03;;;;;;;5.25;3.28;;;5.70;99.90;;;;;;21130404;28;20031;-79
2023/12/09 18:08:04;;;;;;;7.20;3.55;;;5.60;99.90;;;;;;21121901;28;20024;-79
2023/12/09 18:18:07;;;;;;;7.95;3.60;;;5.60;99.90;;;;;;21144937;28;20024;-78
2023/12/09 18:28:08;;;;;;;7.20;2.88;;;5.50;99.90;;;;;;21068187;28;20387;-78
2023/12/09 18:38:09;;;;;;;4.72;3.20;;;5.50;99.90;;;;;;21151298;28;20028;-78
2023/12/09 18:48:10;;;;;;;5.80;3.22;;;5.50;99.90;;;;;;21117966;28;20492;-80
2023/12/09 18:58:12;;;;;;;4.13;2.80;;;5.40;99.90;;;;;;21176691;28;20414;-79
2023/12/09 19:08:13;;;;;;;4.60;2.22;;;5.40;99.90;;;;;;21178430;28;20035;-80
2023/12/09 19:18:14;;;;;;;3.22;2.28;;;5.40;99.90;;;;;;21157767;28;20098;-79
2023/12/09 19:28:15;;;;;;;5.05;2.00;;;5.40;99.90;;;;;;21146016;28;20032;-79
2023/12/09 19:38:16;;;;;;;28.25;10.18;;;5.50;99.90;;;;;;21146763;28;20028;-79
2023/12/09 19:48:17;;;;;;;;;;;5.70;99.90;;;;;;21136729;28;20119;-80
2023/12/09 19:58:18;;;;;;;13.50;7.23;;;5.50;99.90;;;;;;21138324;28;20293;-80
2023/12/09 20:08:19;;;;;;;9.07;5.57;;;5.40;99.90;;;;;;21165162;28;20036;-78
2023/12/09 20:18:20;;;;;;;10.48;5.00;;;5.40;99.90;;;;;;21160703;28;20044;-80
2023/12/09 20:28:20;;;;;;;;;;;5.70;99.90;;;;;;21178578;28;20156;-79
2023/12/09 20:38:21;;;;;;;10.67;6.77;;;6.80;99.90;;;;;;21157991;28;19927;-76
2023/12/09 20:48:22;;;;;;;2.50;1.55;;;7.30;99.90;;;;;;21167810;28;20277;-77
2023/12/09 20:58:23;;;;;;;2.37;0.70;;;8.60;99.90;;;;;;21158250;28;20036;-77
2023/12/09 21:08:24;;;;;;;0.47;0.40;;;8.70;99.90;;;;;;21162042;28;20366;-79
2023/12/09 21:18:24;;;;;;;0.20;0.20;;;8.70;99.90;;;;;;21167643;28;20027;-79
2023/12/09 21:28:26;;;;;;;0.30;0.30;;;8.70;99.90;;;;;;21176286;28;20034;-78
2023/12/09 21:38:27;;;;;;;0.60;0.30;;;8.50;99.90;;;;;;21162218;28;20055;-77
2023/12/09 21:48:28;;;;;;;0.30;0.30;;;8.40;99.90;;;;;;21162503;28;20043;-78
2023/12/09 21:58:29;;;;;;;2.00;0.40;;;8.50;99.90;;;;;;21167535;28;20036;-78
2023/12/09 22:08:29;;;;;;;0.82;0.43;;;8.60;99.90;;;;;;21150299;28;20100;-79
2023/12/09 22:18:30;;;;;;;1.30;0.63;;;8.60;99.90;;;;;;21163642;28;20111;-79
2023/12/09 22:28:31;;;;;;;1.37;0.70;;;8.30;99.90;;;;;;21163098;28;20039;-78
2023/12/09 22:38:32;;;;;;;;;;;8.30;99.90;;;;;;21140412;28;20288;-78
2023/12/09 22:48:33;;;;;;;5.67;0.60;;;8.30;99.90;;;;;;21098352;28;19908;-79
2023/12/09 22:58:34;;;;;;;2.80;1.13;;;8.40;99.90;;;;;;21133225;28;20285;-78
2023/12/09 23:08:35;;;;;;;3.63;0.90;;;8.60;99.90;;;;;;21174657;28;20034;-77
2023/12/09 23:18:39;;;;;;;2.37;0.80;;;8.90;99.90;;;;;;21144814;28;20076;-78
2023/12/09 23:28:40;;;;;;;3.22;1.08;;;9.00;99.90;;;;;;21157665;28;20024;-78
2023/12/09 23:38:41;;;;;;;7.47;1.23;;;9.00;99.90;;;;;;21162236;28;20028;-78
2023/12/09 23:48:42;;;;;;;10.50;1.53;;;9.00;99.90;;;;;;21144661;28;20032;-78
2023/12/09 23:58:43;;;;;;;13.52;2.67;;;9.00;99.90;;;;;;21166106;28;20028;-78
